Time;durP1;ratioP1;P1;durP2;ratioP2;P2;SDS_P1;SDS_P2;PMS_P1;PMS_P2;Temp;Humidity;BMP_temperature;BMP_pressure;BME280_temperature;BME280_humidity;BME280_pressure;Samples;Min_cycle;Max_cycle;Signal;HPM_P1;HPM_P2
2022/11/14 00:00:45;;;;;;;33.00;5.30;;;;;;;1.22;100.00;92898.16;2135840;27;20342;-73
2022/11/14 00:01:46;;;;;;;22.08;5.40;;;;;;;1.12;100.00;92906.72;2135725;27;20026;-74
2022/11/14 00:02:47;;;;;;;14.50;5.13;;;;;;;1.22;100.00;92898.91;2136064;27;20026;-73
2022/11/14 00:03:51;;;;;;;20.98;4.90;;;;;;;1.20;100.00;92890.63;2137904;27;20034;-73
2022/11/14 00:04:52;;;;;;;14.43;5.03;;;;;;;1.16;100.00;92900.38;2126669;27;20456;-73
2022/11/14 00:05:53;;;;;;;11.85;5.18;;;;;;;1.20;100.00;92893.28;2125847;27;20065;-73
2022/11/14 00:06:54;;;;;;;32.17;5.55;;;;;;;1.21;100.00;92892.16;2139423;27;20022;-74
2022/11/14 00:07:56;;;;;;;32.42;5.72;;;;;;;1.26;100.00;92894.44;2137055;27;20381;-74
2022/11/14 00:08:56;;;;;;;22.20;5.32;;;;;;;1.28;100.00;92890.72;2136056;27;20029;-74
2022/11/14 00:09:57;;;;;;;24.35;5.20;;;;;;;1.22;100.00;92900.78;2126652;27;20484;-73
2022/11/14 00:10:58;;;;;;;23.10;5.35;;;;;;;1.21;100.00;92892.16;2125906;27;20065;-73
2022/11/14 00:11:59;;;;;;;10.65;4.97;;;;;;;1.15;100.00;92890.97;2126963;27;20052;-73
2022/11/14 00:13:00;;;;;;;22.70;5.38;;;;;;;1.32;100.00;92884.38;2126810;27;20038;-73
2022/11/14 00:14:02;;;;;;;16.38;5.00;;;;;;;1.23;100.00;92882.03;2123297;27;20544;-75
2022/11/14 00:15:03;;;;;;;32.65;5.15;;;;;;;1.19;100.00;92888.38;2135667;27;20030;-74
2022/11/14 00:16:04;;;;;;;27.88;4.88;;;;;;;1.15;100.00;92877.81;2133820;27;20164;-73
2022/11/14 00:17:05;;;;;;;10.70;4.90;;;;;;;1.18;100.00;92879.69;2139544;27;20031;-74
2022/11/14 00:18:06;;;;;;;24.52;5.07;;;;;;;1.25;100.00;92876.38;2132496;27;20030;-73
2022/11/14 00:19:07;;;;;;;20.20;4.80;;;;;;;1.13;100.00;92880.03;2135673;27;20034;-73
2022/11/14 00:20:10;;;;;;;7.30;5.03;;;;;;;1.00;100.00;92884.78;2135721;27;20033;-74
2022/11/14 00:21:11;;;;;;;13.52;5.00;;;;;;;0.99;100.00;92874.63;2134939;27;20026;-74
2022/11/14 00:22:12;;;;;;;15.50;5.28;;;;;;;0.99;100.00;92878.00;2137470;27;20109;-73
2022/11/14 00:23:13;;;;;;;5.75;4.40;;;;;;;1.05;100.00;92878.44;2126590;27;20019;-72
2022/11/14 00:24:14;;;;;;;13.95;5.30;;;;;;;1.04;100.00;92874.31;2117868;27;20035;-73
2022/11/14 00:25:15;;;;;;;8.80;4.55;;;;;;;1.06;100.00;92874.72;2124597;27;20038;-73
2022/11/14 00:26:16;;;;;;;10.20;4.70;;;;;;;1.28;100.00;92878.31;2135268;27;20076;-73
2022/11/14 00:27:17;;;;;;;25.27;4.93;;;;;;;1.24;100.00;92877.50;2133825;27;20018;-73
2022/11/14 00:28:18;;;;;;;16.60;4.63;;;;;;;1.36;100.00;92876.47;2128762;27;20122;-72
2022/11/14 00:29:19;;;;;;;14.70;4.60;;;;;;;1.20;100.00;92876.72;2136515;27;20022;-73
2022/11/14 00:30:20;;;;;;;13.52;5.00;;;;;;;1.06;100.00;92879.22;2133123;27;20626;-75
2022/11/14 00:31:21;;;;;;;14.35;5.05;;;;;;;0.96;100.00;92873.47;2138642;27;20636;-74
2022/11/14 00:32:22;;;;;;;15.77;5.03;;;;;;;0.95;100.00;92879.09;2139095;27;20063;-73
2022/11/14 00:33:23;;;;;;;9.82;4.47;;;;;;;0.96;100.00;92878.72;2123192;27;20027;-73
2022/11/14 00:34:24;;;;;;;15.52;4.75;;;;;;;1.04;100.00;92869.03;2126289;27;20476;-74
2022/11/14 00:35:25;;;;;;;9.60;4.90;;;;;;;1.03;100.00;92866.78;2135693;27;20035;-73
2022/11/14 00:36:26;;;;;;;14.57;4.65;;;;;;;0.92;100.00;92867.44;2138832;27;20086;-73
2022/11/14 00:37:27;;;;;;;25.63;5.03;;;;;;;0.89;100.00;92860.25;2134725;27;20022;-73
2022/11/14 00:38:28;;;;;;;20.88;4.70;;;;;;;0.99;100.00;92856.22;2135693;27;20027;-73
2022/11/14 00:39:29;;;;;;;22.95;4.93;;;;;;;0.94;100.00;92859.94;2135427;27;20018;-75
2022/11/14 00:40:30;;;;;;;13.75;4.93;;;;;;;0.98;100.00;92855.47;2126260;27;20101;-73
2022/11/14 00:41:31;;;;;;;8.70;4.65;;;;;;;0.93;100.00;92858.41;2126369;27;20102;-75
2022/11/14 00:42:33;;;;;;;13.88;4.80;;;;;;;1.10;100.00;92861.56;2128627;27;20144;-73
2022/11/14 00:43:34;;;;;;;13.45;4.90;;;;;;;1.04;100.00;92863.78;2139466;27;20034;-73
2022/11/14 00:44:35;;;;;;;17.35;5.15;;;;;;;1.07;100.00;92863.06;2131822;27;20027;-73
2022/11/14 00:45:36;;;;;;;5.22;4.72;;;;;;;1.07;100.00;92864.94;2135520;27;20023;-74
2022/11/14 00:46:37;;;;;;;10.27;4.63;;;;;;;1.08;100.00;92869.84;2138759;27;20456;-74
2022/11/14 00:47:38;;;;;;;11.55;4.45;;;;;;;1.15;100.00;92869.91;2128187;27;20027;-73
2022/11/14 00:48:39;;;;;;;13.38;4.47;;;;;;;0.95;100.00;92874.59;2135354;27;20114;-73
2022/11/14 00:49:40;;;;;;;16.05;5.32;;;;;;;0.96;100.00;92872.72;2135408;27;20051;-74
2022/11/14 00:50:42;;;;;;;19.25;5.55;;;;;;;1.02;100.00;92870.53;2138375;27;20054;-73
2022/11/14 00:51:43;;;;;;;17.17;5.22;;;;;;;0.95;100.00;92874.59;2121698;27;20027;-73
2022/11/14 00:52:44;;;;;;;50.45;6.90;;;;;;;0.89;100.00;92872.66;2123520;27;20020;-73
2022/11/14 00:53:45;;;;;;;20.48;4.80;;;;;;;0.93;100.00;92876.09;2135562;27;20050;-73
2022/11/14 00:54:46;;;;;;;23.13;5.05;;;;;;;1.02;100.00;92876.53;2135355;27;20058;-73
2022/11/14 00:55:47;;;;;;;17.70;5.00;;;;;;;1.16;100.00;92874.03;2135253;27;20095;-74
2022/11/14 00:56:48;;;;;;;22.33;5.43;;;;;;;1.18;100.00;92865.78;2124950;27;20035;-73
2022/11/14 00:57:49;;;;;;;17.02;5.68;;;;;;;1.10;100.00;92864.19;2125423;27;20050;-76
2022/11/14 00:58:50;;;;;;;19.88;5.05;;;;;;;1.11;100.00;92869.13;2135424;27;20085;-74
2022/11/14 00:59:54;;;;;;;21.10;5.00;;;;;;;1.09;100.00;92865.31;2135519;27;20035;-73
2022/11/14 01:00:55;;;;;;;38.28;5.53;;;;;;;1.22;100.00;92856.78;2125851;27;20038;-73
2022/11/14 01:01:56;;;;;;;45.10;5.97;;;;;;;1.16;100.00;92855.63;2126244;27;20051;-74
2022/11/14 01:02:58;;;;;;;14.38;5.10;;;;;;;1.27;100.00;92855.72;2138013;27;20030;-74
2022/11/14 01:03:59;;;;;;;35.38;5.55;;;;;;;1.46;100.00;92852.13;2117880;27;20443;-73
2022/11/14 01:05:01;;;;;;;27.40;5.68;;;;;;;1.27;100.00;92855.72;2117636;27;20031;-73
2022/11/14 01:06:05;;;;;;;13.57;6.10;;;;;;;1.14;100.00;92851.81;2131063;27;20026;-73
2022/11/14 01:07:06;;;;;;;43.83;6.10;;;;;;;1.03;100.00;92849.09;2136102;27;20031;-72
2022/11/14 01:08:07;;;;;;;67.88;6.75;;;;;;;1.02;100.00;92852.13;2131808;27;20461;-73
2022/11/14 01:09:08;;;;;;;35.75;5.80;;;;;;;1.02;100.00;92850.22;2135237;27;20523;-73
2022/11/14 01:10:09;;;;;;;9.23;5.78;;;;;;;1.03;100.00;92856.25;2135395;27;20106;-73
2022/11/14 01:11:20;;;;;;;29.58;5.47;;;;;;;1.14;100.00;92849.19;2135132;27;20026;-73
2022/11/14 01:12:21;;;;;;;38.35;6.05;;;;;;;1.06;100.00;92847.63;2135183;27;20045;-73
2022/11/14 01:13:22;;;;;;;30.80;6.00;;;;;;;0.98;100.00;92849.44;2134609;27;20030;-73
2022/11/14 01:14:23;;;;;;;43.35;5.85;;;;;;;1.08;100.00;92850.66;2135335;27;20465;-74
2022/11/14 01:15:24;;;;;;;28.90;6.00;;;;;;;1.32;100.00;92847.50;2135297;27;20019;-74
2022/11/14 01:16:25;;;;;;;34.50;6.55;;;;;;;1.20;100.00;92845.13;2134689;27;20084;-74
2022/11/14 01:17:27;;;;;;;44.65;6.57;;;;;;;1.17;100.00;92843.97;2130163;27;20137;-74
2022/11/14 01:18:28;;;;;;;51.30;6.50;;;;;;;1.21;100.00;92846.63;2124846;27;20547;-74
2022/11/14 01:19:29;;;;;;;35.58;6.82;;;;;;;1.20;100.00;92847.75;2126075;27;20019;-74
2022/11/14 01:20:30;;;;;;;16.10;5.70;;;;;;;1.16;100.00;92839.06;2135366;27;20084;-75
2022/11/14 01:21:31;;;;;;;30.70;5.53;;;;;;;1.21;100.00;92844.00;2135325;27;20058;-74
2022/11/14 01:22:32;;;;;;;60.95;6.85;;;;;;;1.17;100.00;92840.59;2131032;27;20409;-73
2022/11/14 01:23:33;;;;;;;25.65;5.90;;;;;;;1.10;100.00;92837.88;2130451;27;21034;-74
2022/11/14 01:24:34;;;;;;;55.08;7.07;;;;;;;1.14;100.00;92838.66;2135340;27;20064;-74
2022/11/14 01:25:37;;;;;;;27.75;6.32;;;;;;;1.09;100.00;92839.75;2135434;27;20159;-74
2022/11/14 01:26:38;;;;;;;33.33;6.55;;;;;;;1.15;100.00;92842.84;2134123;27;20018;-74
2022/11/14 01:27:39;;;;;;;35.05;6.55;;;;;;;1.13;100.00;92837.16;2135435;27;20090;-74
2022/11/14 01:28:40;;;;;;;22.20;6.13;;;;;;;1.27;100.00;92834.66;2132062;27;20019;-73
2022/11/14 01:29:41;;;;;;;42.45;6.63;;;;;;;1.14;100.00;92836.03;2126957;27;20050;-74
2022/11/14 01:30:43;;;;;;;22.58;7.18;;;;;;;1.20;100.00;92837.22;2125923;27;20034;-72
2022/11/14 01:31:43;;;;;;;15.40;5.97;;;;;;;1.25;100.00;92842.16;2135052;27;20037;-72
2022/11/14 01:32:44;;;;;;;30.60;6.18;;;;;;;1.28;100.00;92833.53;2135103;27;20026;-72
2022/11/14 01:33:48;;;;;;;43.95;6.57;;;;;;;1.22;100.00;92837.63;2135106;27;20078;-72
2022/11/14 01:34:49;;;;;;;29.15;6.45;;;;;;;1.12;100.00;92838.28;2130772;27;20031;-72
2022/11/14 01:35:50;;;;;;;17.17;6.25;;;;;;;1.11;100.00;92834.16;2125884;27;20027;-72
2022/11/14 01:36:51;;;;;;;20.95;6.07;;;;;;;1.08;100.00;92827.72;2117004;27;20084;-74
2022/11/14 01:37:52;;;;;;;46.60;6.55;;;;;;;1.07;100.00;92828.09;2125772;27;20113;-72
2022/11/14 01:38:53;;;;;;;22.83;6.78;;;;;;;1.14;100.00;92825.50;2135095;27;20368;-72
2022/11/14 01:39:54;;;;;;;37.30;6.75;;;;;;;1.16;100.00;92825.91;2133070;27;20019;-74
2022/11/14 01:40:55;;;;;;;43.00;6.50;;;;;;;1.03;100.00;92820.16;2134964;27;20030;-72
2022/11/14 01:41:57;;;;;;;18.50;6.32;;;;;;;1.23;100.00;92824.09;2135220;27;20023;-72
2022/11/14 01:43:34;;;;;;;25.20;6.72;;;;;;;1.15;100.00;92825.16;2135162;27;20029;-72
2022/11/14 01:44:53;;;;;;;19.92;6.18;;;;;;;1.20;100.00;92824.06;2098571;28;20036;-73
2022/11/14 01:46:12;;;;;;;45.78;6.40;;;;;;;1.34;100.00;92818.91;2099569;28;20028;-72
2022/11/14 01:47:19;;;;;;;20.60;6.00;;;;;;;1.33;100.00;92827.94;2123815;27;20045;-72
2022/11/14 01:48:44;;;;;;;20.63;6.80;;;;;;;1.20;100.00;92824.81;2133495;27;20026;-72
2022/11/14 01:49:49;;;;;;;19.27;5.55;;;;;;;1.24;100.00;92819.59;2132109;27;20034;-72
2022/11/14 01:50:56;;;;;;;34.30;5.80;;;;;;;1.39;100.00;92810.69;2133329;27;20484;-72
2022/11/14 01:52:23;;;;;;;21.02;6.63;;;;;;;1.31;100.00;92809.09;2134874;27;20384;-74
2022/11/14 01:53:24;;;;;;;23.23;6.43;;;;;;;1.23;100.00;92807.56;2130061;27;20365;-73
2022/11/14 01:54:32;;;;;;;48.65;6.50;;;;;;;1.19;100.00;92806.78;2134944;27;20476;-73
2022/11/14 01:55:32;;;;;;;47.00;7.00;;;;;;;1.21;100.00;92804.53;2121646;27;20105;-73
2022/11/14 01:56:42;;;;;;;29.52;6.53;;;;;;;1.24;100.00;92806.44;2125455;27;20027;-73
2022/11/14 01:57:46;;;;;;;38.33;6.45;;;;;;;1.16;100.00;92807.50;2134874;27;20026;-74
2022/11/14 01:59:00;;;;;;;18.38;6.60;;;;;;;1.22;100.00;92803.41;2135002;27;20038;-73
2022/11/14 02:00:06;;;;;;;42.67;7.07;;;;;;;1.13;100.00;92800.31;2134918;27;20113;-73
2022/11/14 02:01:07;;;;;;;21.77;6.55;;;;;;;1.05;100.00;92798.72;2134433;27;20108;-74
2022/11/14 02:02:17;;;;;;;17.85;6.90;;;;;;;1.06;100.00;92801.03;2135273;27;20022;-73
2022/11/14 02:03:19;;;;;;;14.07;6.32;;;;;;;1.05;100.00;92802.13;2125790;27;20079;-74
2022/11/14 02:04:32;;;;;;;36.40;7.45;;;;;;;0.99;100.00;92804.34;2126204;27;20075;-74
2022/11/14 02:05:34;;;;;;;10.63;6.57;;;;;;;1.15;100.00;92798.84;2128897;27;20026;-73
2022/11/14 02:06:35;;;;;;;12.13;6.32;;;;;;;1.11;100.00;92795.41;2125369;27;20046;-73
2022/11/14 02:07:39;;;;;;;23.95;6.55;;;;;;;1.04;100.00;92795.34;2125365;27;20059;-73
2022/11/14 02:08:41;;;;;;;23.83;6.22;;;;;;;1.17;100.00;92790.56;2125643;27;20039;-74
2022/11/14 02:09:44;;;;;;;32.97;6.65;;;;;;;1.09;100.00;92792.38;2128621;27;20029;-73
2022/11/14 02:10:45;;;;;;;30.27;6.55;;;;;;;1.10;100.00;92787.88;2132866;27;20428;-75
2022/11/14 02:11:47;;;;;;;27.35;6.00;;;;;;;1.28;100.00;92786.16;2132689;27;20018;-73
2022/11/14 02:12:49;;;;;;;14.93;6.45;;;;;;;1.18;100.00;92792.06;2134817;27;20026;-73
2022/11/14 02:13:51;;;;;;;40.53;6.90;;;;;;;1.19;100.00;92790.97;2134780;27;20034;-73
2022/11/14 02:16:34;;;;;;;;;;;;;;;1.17;100.00;92778.16;2141898;27;20543;-75
2022/11/14 02:17:35;;;;;;;29.33;5.72;;;;;;;1.15;100.00;92784.94;2139322;27;19911;-74
2022/11/14 02:18:37;;;;;;;18.98;6.10;;;;;;;1.13;100.00;92784.53;2142563;27;20096;-75
2022/11/14 02:19:54;;;;;;;27.55;6.60;;;;;;;1.12;100.00;92785.66;2142353;27;20399;-74
2022/11/14 02:20:57;;;;;;;22.65;6.25;;;;;;;1.11;100.00;92787.53;2141758;27;20060;-74
2022/11/14 02:21:58;;;;;;;41.92;7.18;;;;;;;1.05;100.00;92793.47;2132324;27;20406;-74
2022/11/14 02:23:00;;;;;;;49.75;7.00;;;;;;;1.10;100.00;92788.66;2124823;27;20045;-73
2022/11/14 02:24:01;;;;;;;26.15;6.65;;;;;;;1.05;100.00;92791.59;2133346;27;20568;-74
2022/11/14 02:25:02;;;;;;;22.98;6.53;;;;;;;1.03;100.00;92785.94;2138055;27;20025;-74
2022/11/14 02:26:03;;;;;;;13.13;6.47;;;;;;;1.04;100.00;92779.56;2142025;27;20041;-75
2022/11/14 02:27:05;;;;;;;36.13;7.47;;;;;;;1.06;100.00;92795.00;2141420;27;20024;-74
2022/11/14 02:28:08;;;;;;;23.63;6.45;;;;;;;1.20;100.00;92781.94;2133849;27;20040;-75
2022/11/14 02:29:10;;;;;;;40.80;7.25;;;;;;;1.18;100.00;92784.19;2130126;27;20093;-74
2022/11/14 02:30:15;;;;;;;26.60;6.88;;;;;;;1.35;100.00;92788.81;2142255;27;20034;-75
2022/11/14 02:31:16;;;;;;;21.92;6.50;;;;;;;1.32;100.00;92783.53;2133025;27;20105;-74
2022/11/14 02:32:17;;;;;;;47.92;7.15;;;;;;;1.31;100.00;92803.84;2132222;27;20034;-74
2022/11/14 02:33:18;;;;;;;27.27;6.63;;;;;;;1.32;100.00;92794.06;2142293;27;20025;-75
2022/11/14 02:34:19;;;;;;;35.50;6.93;;;;;;;1.31;100.00;92798.56;2142273;27;20058;-74
2022/11/14 02:35:20;;;;;;;46.03;7.20;;;;;;;1.27;100.00;92803.06;2142327;27;20053;-74
2022/11/14 02:36:21;;;;;;;40.80;7.50;;;;;;;1.25;100.00;92810.56;2141780;27;20043;-74
2022/11/14 02:37:22;;;;;;;40.42;7.95;;;;;;;1.32;100.00;92804.59;2140732;27;20072;-73
2022/11/14 02:38:24;;;;;;;66.60;7.88;;;;;;;1.26;100.00;92804.19;2142962;27;20108;-74
2022/11/14 02:39:25;;;;;;;55.72;7.70;;;;;;;1.23;100.00;92810.19;2142466;27;20360;-74
2022/11/14 02:40:26;;;;;;;66.65;8.00;;;;;;;1.22;100.00;92812.03;2143130;27;20014;-75
2022/11/14 02:41:27;;;;;;;37.70;7.15;;;;;;;1.20;100.00;92808.28;2142492;27;20026;-75
2022/11/14 02:42:28;;;;;;;57.75;8.15;;;;;;;1.22;100.00;92811.28;2139049;27;20033;-73
2022/11/14 02:43:29;;;;;;;80.70;9.57;;;;;;;1.44;100.00;92817.47;2141954;27;20045;-75
2022/11/14 02:44:30;;;;;;;60.53;7.90;;;;;;;1.38;100.00;92811.81;2142041;27;20086;-74
2022/11/14 02:45:31;;;;;;;71.00;9.90;;;;;;;1.39;100.00;92809.91;2142344;27;20029;-74
2022/11/14 02:46:32;;;;;;;61.88;7.75;;;;;;;1.43;100.00;92810.72;2137766;27;20459;-74
2022/11/14 02:47:33;;;;;;;88.43;8.52;;;;;;;1.46;100.00;92812.63;2134997;27;20030;-74
2022/11/14 02:48:34;;;;;;;86.03;9.35;;;;;;;1.55;100.00;92815.69;2141454;27;20038;-75
2022/11/14 02:49:35;;;;;;;36.85;8.50;;;;;;;1.48;100.00;92810.38;2141967;27;20036;-74
2022/11/14 02:50:36;;;;;;;65.75;9.45;;;;;;;1.49;100.00;92815.28;2142028;27;20076;-76
2022/11/14 02:51:37;;;;;;;43.60;8.38;;;;;;;1.44;100.00;92810.34;2132923;27;20125;-75
2022/11/14 02:52:38;;;;;;;55.78;8.48;;;;;;;1.46;100.00;92810.75;2129427;27;20023;-75
2022/11/14 02:53:39;;;;;;;78.55;8.93;;;;;;;1.44;100.00;92809.59;2132929;27;20110;-75
2022/11/14 02:54:40;;;;;;;79.88;9.07;;;;;;;1.43;100.00;92813.34;2133053;27;20019;-75
2022/11/14 02:55:41;;;;;;;67.28;8.95;;;;;;;1.46;100.00;92817.88;2142265;27;20050;-76
2022/11/14 02:56:42;;;;;;;92.10;10.23;;;;;;;1.57;100.00;92815.31;2144505;27;20022;-75
2022/11/14 02:57:43;;;;;;;94.40;10.35;;;;;;;1.51;100.00;92814.91;2141258;27;20026;-74
2022/11/14 02:58:44;;;;;;;86.38;9.55;;;;;;;1.50;100.00;92816.78;2142187;27;20030;-74
2022/11/14 02:59:45;;;;;;;77.97;9.60;;;;;;;1.44;100.00;92809.59;2140231;27;20026;-74
2022/11/14 03:00:46;;;;;;;79.85;9.50;;;;;;;1.48;100.00;92813.75;2132746;27;20503;-74
2022/11/14 03:01:47;;;;;;;68.30;9.52;;;;;;;1.52;100.00;92808.50;2132922;27;20060;-74
2022/11/14 03:02:47;;;;;;;76.97;9.43;;;;;;;1.49;100.00;92814.50;2137463;27;20038;-74
2022/11/14 03:03:48;;;;;;;32.30;9.57;;;;;;;1.58;100.00;92817.59;2140390;27;20026;-74
2022/11/14 03:04:49;;;;;;;99.88;10.30;;;;;;;1.55;100.00;92814.94;2142085;27;20034;-75
2022/11/14 03:05:52;;;;;;;62.92;10.10;;;;;;;1.48;100.00;92813.75;2142117;27;20034;-75
2022/11/14 03:06:53;;;;;;;48.78;9.07;;;;;;;1.83;100.00;92811.72;2141250;27;20352;-75
2022/11/14 03:07:55;;;;;;;73.82;10.98;;;;;;;1.63;100.00;92808.59;2139133;27;20018;-76
2022/11/14 03:08:56;;;;;;;69.35;9.52;;;;;;;1.60;100.00;92801.44;2141378;27;20023;-76
2022/11/14 03:09:57;;;;;;;87.80;10.35;;;;;;;1.61;100.00;92795.78;2142215;27;20022;-76
2022/11/14 03:11:04;;;;;;;44.30;9.00;;;;;;;1.53;100.00;92804.75;2142267;27;20037;-75
2022/11/14 03:12:05;;;;;;;53.50;9.15;;;;;;;1.71;100.00;92797.75;2130362;27;20113;-76
2022/11/14 03:13:06;;;;;;;52.40;10.00;;;;;;;1.61;100.00;92800.28;2132228;27;20027;-75
2022/11/14 03:14:07;;;;;;;58.72;9.48;;;;;;;1.58;100.00;92791.25;2132676;27;20470;-74
2022/11/14 03:15:09;;;;;;;64.13;9.20;;;;;;;1.60;100.00;92796.91;2141865;27;20035;-76
2022/11/14 03:16:13;;;;;;;63.20;10.45;;;;;;;1.52;100.00;92784.81;2132071;27;20427;-75
2022/11/14 03:17:14;;;;;;;38.90;9.35;;;;;;;1.65;100.00;92798.44;2130577;27;20346;-75
2022/11/14 03:18:15;;;;;;;69.05;10.80;;;;;;;1.60;100.00;92793.53;2138702;27;20049;-75
2022/11/14 03:19:16;;;;;;;69.38;10.38;;;;;;;1.59;100.00;92789.38;2141883;27;20070;-75
2022/11/14 03:20:17;;;;;;;54.15;10.10;;;;;;;1.58;100.00;92793.91;2141986;27;20022;-75
2022/11/14 03:21:21;;;;;;;61.97;10.60;;;;;;;1.59;100.00;92786.75;2141891;27;20022;-75
2022/11/14 03:22:22;;;;;;;64.38;9.82;;;;;;;1.69;100.00;92791.31;2142011;27;20031;-74
2022/11/14 03:23:23;;;;;;;62.08;10.43;;;;;;;1.84;100.00;92792.91;2141236;27;20022;-75
2022/11/14 03:24:24;;;;;;;62.20;11.05;;;;;;;1.69;100.00;92792.06;2140771;27;20034;-75
2022/11/14 03:25:25;;;;;;;37.17;9.60;;;;;;;1.65;100.00;92791.28;2141792;27;20057;-72
2022/11/14 03:26:26;;;;;;;61.33;9.85;;;;;;;1.62;100.00;92791.25;2141578;27;20097;-75
2022/11/14 03:27:27;;;;;;;43.83;10.43;;;;;;;1.72;100.00;92786.06;2138936;27;20042;-75
2022/11/14 03:28:28;;;;;;;60.50;10.13;;;;;;;1.66;100.00;92792.81;2133072;27;20421;-75
2022/11/14 03:29:29;;;;;;;33.42;9.65;;;;;;;1.93;100.00;92788.09;2131158;27;20029;-75
2022/11/14 03:30:30;;;;;;;33.47;10.13;;;;;;;1.80;100.00;92792.16;2126925;27;20075;-75
2022/11/14 03:31:31;;;;;;;49.22;9.40;;;;;;;1.70;100.00;92790.19;2122775;27;20169;-75
2022/11/14 03:32:32;;;;;;;25.60;9.00;;;;;;;1.89;100.00;92791.78;2131966;27;20049;-75
2022/11/14 03:33:34;;;;;;;32.83;9.07;;;;;;;1.76;100.00;92792.13;2136172;27;20125;-75
2022/11/14 03:34:35;;;;;;;25.15;9.18;;;;;;;1.70;100.00;92792.81;2135268;27;20018;-76
2022/11/14 03:35:41;;;;;;;25.45;9.50;;;;;;;1.65;100.00;92791.28;2126780;27;20142;-75
2022/11/14 03:36:42;;;;;;;30.27;9.27;;;;;;;1.58;100.00;92790.47;2127338;27;20077;-75
2022/11/14 03:37:43;;;;;;;27.77;8.82;;;;;;;1.70;100.00;92784.91;2136024;27;20026;-75
2022/11/14 03:38:44;;;;;;;36.70;9.38;;;;;;;1.68;100.00;92785.31;2136049;27;20140;-76
2022/11/14 03:39:45;;;;;;;28.15;9.05;;;;;;;1.64;100.00;92786.41;2135271;27;20049;-75
2022/11/14 03:40:46;;;;;;;29.20;9.18;;;;;;;1.59;100.00;92784.88;2136061;27;20018;-75
2022/11/14 03:41:47;;;;;;;27.25;9.38;;;;;;;1.73;100.00;92782.31;2135930;27;20053;-75
2022/11/14 03:42:48;;;;;;;21.38;9.90;;;;;;;1.66;100.00;92786.78;2126710;27;20162;-75
2022/11/14 03:43:49;;;;;;;17.25;8.80;;;;;;;1.64;100.00;92791.66;2129388;27;20041;-75
2022/11/14 03:44:50;;;;;;;21.33;9.50;;;;;;;1.62;100.00;92788.63;2132509;27;20031;-75
2022/11/14 03:45:51;;;;;;;16.42;9.73;;;;;;;1.61;100.00;92795.03;2126703;27;20489;-75
2022/11/14 03:46:52;;;;;;;25.40;9.45;;;;;;;1.60;100.00;92794.28;2126604;27;20038;-73
2022/11/14 03:47:53;;;;;;;26.05;10.55;;;;;;;1.57;100.00;92797.63;2132631;27;20025;-72
2022/11/14 03:48:55;;;;;;;29.48;9.77;;;;;;;1.55;100.00;92793.88;2126470;27;20422;-75
2022/11/14 03:49:55;;;;;;;22.40;9.35;;;;;;;1.70;100.00;92801.47;2126040;27;20360;-75
2022/11/14 03:50:57;;;;;;;16.67;9.73;;;;;;;1.80;100.00;92800.06;2126881;27;20018;-75
2022/11/14 03:51:58;;;;;;;18.48;10.02;;;;;;;1.71;100.00;92787.22;2118394;27;20019;-74
2022/11/14 03:52:59;;;;;;;21.75;10.23;;;;;;;1.78;100.00;92802.28;2127047;27;20433;-74
2022/11/14 03:54:00;;;;;;;32.60;10.48;;;;;;;1.69;100.00;92799.97;2136089;27;20018;-75
2022/11/14 03:55:01;;;;;;;16.77;9.88;;;;;;;1.73;100.00;92795.50;2131260;27;20029;-74
2022/11/14 03:56:02;;;;;;;26.27;10.77;;;;;;;1.77;100.00;92801.53;2135461;27;20037;-74
2022/11/14 03:57:03;;;;;;;36.42;11.00;;;;;;;1.83;100.00;92806.47;2135742;27;20110;-75
2022/11/14 03:58:04;;;;;;;38.42;10.77;;;;;;;1.70;100.00;92806.00;2135842;27;20022;-74
2022/11/14 03:59:05;;;;;;;32.97;11.35;;;;;;;1.79;100.00;92814.34;2135805;27;20483;-75
2022/11/14 04:00:08;;;;;;;38.83;11.18;;;;;;;1.85;100.00;92806.84;2124113;27;20051;-74
2022/11/14 04:01:09;;;;;;;44.63;10.90;;;;;;;1.90;100.00;92811.78;2127013;27;20027;-74
2022/11/14 04:02:10;;;;;;;37.47;10.32;;;;;;;1.86;100.00;92811.00;2135829;27;20030;-74
2022/11/14 04:03:11;;;;;;;21.77;11.10;;;;;;;1.83;100.00;92811.72;2135842;27;20242;-72
2022/11/14 04:04:12;;;;;;;27.75;11.20;;;;;;;1.79;100.00;92816.97;2135694;27;20030;-74
2022/11/14 04:05:13;;;;;;;32.75;11.80;;;;;;;1.83;100.00;92809.84;2125782;27;20446;-74
2022/11/14 04:06:14;;;;;;;30.65;12.05;;;;;;;1.85;100.00;92812.13;2126372;27;20078;-74
2022/11/14 04:07:15;;;;;;;37.03;11.88;;;;;;;1.83;100.00;92819.63;2135772;27;20376;-74
2022/11/14 04:08:17;;;;;;;29.38;11.85;;;;;;;1.84;100.00;92823.78;2135792;27;20498;-74
2022/11/14 04:09:18;;;;;;;41.38;12.23;;;;;;;1.90;100.00;92820.44;2135771;27;20113;-74
2022/11/14 04:10:19;;;;;;;46.28;12.88;;;;;;;1.92;100.00;92815.53;2132939;27;20022;-73
2022/11/14 04:11:20;;;;;;;33.90;11.90;;;;;;;1.84;100.00;92819.25;2128284;27;20042;-73
2022/11/14 04:12:21;;;;;;;40.35;12.43;;;;;;;1.82;100.00;92810.22;2135766;27;20046;-74
2022/11/14 04:13:22;;;;;;;38.80;12.77;;;;;;;1.99;100.00;92810.31;2135829;27;20129;-73
2022/11/14 04:14:24;;;;;;;75.80;13.10;;;;;;;1.93;100.00;92809.16;2135758;27;20053;-75
2022/11/14 04:15:25;;;;;;;55.58;12.82;;;;;;;2.16;100.00;92808.16;2134393;27;20094;-72
2022/11/14 04:16:26;;;;;;;83.55;14.20;;;;;;;2.06;100.00;92803.56;2134204;27;20043;-73
2022/11/14 04:17:26;;;;;;;68.07;13.70;;;;;;;1.96;100.00;92808.41;2133288;27;20046;-68
2022/11/14 04:18:28;;;;;;;57.83;14.32;;;;;;;1.93;100.00;92806.53;2135257;27;20456;-72
2022/11/14 04:19:29;;;;;;;70.90;13.25;;;;;;;1.94;100.00;92808.03;2135816;27;20078;-72
2022/11/14 04:20:30;;;;;;;59.13;14.07;;;;;;;2.04;100.00;92797.91;2135546;27;20121;-72
2022/11/14 04:21:31;;;;;;;72.72;14.52;;;;;;;1.97;100.00;92796.75;2135619;27;20423;-72
2022/11/14 04:22:31;;;;;;;64.18;14.15;;;;;;;2.03;100.00;92805.06;2122367;27;20530;-73
2022/11/14 04:23:32;;;;;;;57.92;13.80;;;;;;;2.17;100.00;92794.59;2130675;27;20772;-72
2022/11/14 04:24:34;;;;;;;53.65;13.55;;;;;;;2.05;100.00;92796.78;2136140;27;20034;-73
2022/11/14 04:25:34;;;;;;;26.27;13.13;;;;;;;2.10;100.00;92793.78;2134658;27;20364;-74
2022/11/14 04:26:35;;;;;;;43.20;13.10;;;;;;;2.12;100.00;92789.69;2135319;27;20026;-74
2022/11/14 04:27:36;;;;;;;72.88;13.68;;;;;;;2.28;100.00;92789.34;2135962;27;20026;-74
2022/11/14 04:28:38;;;;;;;63.33;13.70;;;;;;;2.33;100.00;92778.47;2123888;27;20129;-73
2022/11/14 04:29:38;;;;;;;57.10;14.10;;;;;;;2.24;100.00;92781.44;2126692;27;20023;-75
2022/11/14 04:30:40;;;;;;;80.20;14.80;;;;;;;2.17;100.00;92781.41;2135741;27;20059;-74
2022/11/14 04:31:41;;;;;;;109.55;16.08;;;;;;;2.11;100.00;92776.84;2134659;27;20033;-75
2022/11/14 04:32:44;;;;;;;93.63;14.88;;;;;;;2.15;100.00;92777.63;2135590;27;20026;-75
2022/11/14 04:33:45;;;;;;;78.97;16.35;;;;;;;2.40;100.00;92765.28;2135647;27;20050;-72
2022/11/14 04:34:46;;;;;;;60.63;14.73;;;;;;;2.30;100.00;92767.91;2135499;27;20038;-73
2022/11/14 04:35:47;;;;;;;74.78;13.98;;;;;;;2.22;100.00;92759.19;2135467;27;20042;-72
2022/11/14 04:36:50;;;;;;;68.32;14.38;;;;;;;2.21;100.00;92763.72;2135099;27;20033;-74
2022/11/14 04:37:50;;;;;;;89.38;14.07;;;;;;;2.37;100.00;92765.28;2135514;27;20022;-75
2022/11/14 04:38:51;;;;;;;65.82;15.07;;;;;;;2.26;100.00;92767.88;2135297;27;20035;-74
2022/11/14 04:39:57;;;;;;;69.55;15.43;;;;;;;2.33;100.00;92759.22;2134745;27;20058;-73
2022/11/14 04:40:58;;;;;;;111.60;15.15;;;;;;;2.29;100.00;92763.75;2135381;27;20356;-73
2022/11/14 04:41:59;;;;;;;86.70;14.75;;;;;;;2.24;100.00;92765.63;2132386;27;20027;-73
2022/11/14 04:43:00;;;;;;;76.22;14.98;;;;;;;2.28;100.00;92762.97;2135606;27;20026;-74
2022/11/14 04:44:02;;;;;;;80.22;15.25;;;;;;;2.17;100.00;92762.19;2135738;27;20633;-74
2022/11/14 04:45:03;;;;;;;64.18;15.55;;;;;;;2.14;100.00;92766.31;2131387;27;20034;-73
2022/11/14 04:46:04;;;;;;;78.80;16.05;;;;;;;2.18;100.00;92755.78;2135183;27;20122;-73
2022/11/14 04:47:05;;;;;;;49.75;15.35;;;;;;;2.15;100.00;92759.16;2125559;27;20018;-73
2022/11/14 04:48:06;;;;;;;72.22;15.30;;;;;;;2.15;100.00;92764.44;2122927;27;20069;-73
2022/11/14 04:49:07;;;;;;;70.10;15.20;;;;;;;2.17;100.00;92768.22;2125962;27;20385;-74
2022/11/14 04:50:09;;;;;;;68.78;15.23;;;;;;;2.23;100.00;92758.06;2126164;27;20030;-73